createdAt,value
2023-05-06T00:01:10.447Z,3.55
2023-05-06T00:06:06.439Z,4.20
2023-05-06T00:08:33.237Z,3.95
2023-05-06T00:10:59.963Z,4.15
2023-05-06T00:13:26.637Z,4.18
2023-05-06T00:15:53.364Z,4.28
2023-05-06T00:18:22.490Z,4.22
2023-05-06T00:20:49.627Z,3.55
2023-05-06T00:23:16.430Z,3.85
2023-05-06T00:25:43.119Z,4.35
2023-05-06T00:28:09.818Z,4.47
2023-05-06T00:30:36.475Z,3.75
2023-05-06T00:33:03.306Z,3.65
2023-05-06T00:35:30.776Z,3.45
2023-05-06T00:38:11.070Z,3.72
2023-05-06T00:40:38.021Z,4.15
2023-05-06T00:43:04.672Z,3.70
2023-05-06T00:45:31.354Z,4.45
2023-05-06T00:47:58.319Z,4.22
2023-05-06T00:50:25.914Z,3.92
2023-05-06T00:52:54.738Z,3.92
2023-05-06T00:55:22.168Z,3.80
2023-05-06T00:57:51.989Z,4.65
2023-05-06T01:02:47.881Z,4.00
2023-05-06T01:05:16.094Z,3.83
2023-05-06T01:07:42.747Z,4.63
2023-05-06T01:10:18.907Z,3.58
2023-05-06T01:13:12.462Z,4.22
2023-05-06T01:15:45.424Z,4.78
2023-05-06T01:20:43.793Z,4.13
2023-05-06T01:23:13.238Z,3.92
2023-05-06T01:28:08.603Z,3.92
2023-05-06T01:30:38.798Z,4.28
2023-05-06T01:35:42.735Z,4.65
2023-05-06T01:38:09.400Z,4.78
2023-05-06T01:40:36.412Z,4.50
2023-05-06T01:43:05.232Z,4.38
2023-05-06T01:45:33.930Z,5.05
2023-05-06T01:48:01.003Z,4.47
2023-05-06T01:50:27.642Z,4.28
2023-05-06T01:52:54.286Z,5.70
2023-05-06T02:05:03.092Z,4.32
2023-05-06T02:07:30.295Z,4.10
2023-05-06T02:09:57.044Z,3.55
2023-05-06T02:14:49.065Z,4.57
2023-05-06T02:17:15.984Z,4.28
2023-05-06T02:19:42.685Z,4.03
2023-05-06T02:22:09.420Z,4.30
2023-05-06T02:24:36.096Z,4.90
2023-05-06T02:27:04.294Z,3.78
2023-05-06T02:29:30.930Z,5.00
2023-05-06T02:31:57.698Z,4.50
2023-05-06T02:34:24.464Z,4.10
2023-05-06T02:36:51.129Z,4.80
2023-05-06T02:39:17.724Z,4.65
2023-05-06T02:41:44.442Z,4.47
2023-05-06T02:44:11.259Z,4.32
2023-05-06T02:46:37.881Z,4.55
2023-05-06T02:51:30.081Z,4.28
2023-05-06T02:53:56.865Z,4.82
2023-05-06T02:56:23.588Z,4.03
2023-05-06T02:58:50.355Z,4.18
2023-05-06T03:01:17.061Z,4.97
2023-05-06T03:06:09.094Z,4.53
2023-05-06T03:08:35.766Z,4.93
2023-05-06T03:11:03.516Z,4.55
2023-05-06T03:13:30.257Z,4.50
2023-05-06T03:15:57.174Z,5.13
2023-05-06T03:18:24.248Z,5.35
2023-05-06T03:20:51.234Z,4.70
2023-05-06T03:23:17.860Z,4.10
2023-05-06T03:25:44.867Z,4.03
2023-05-06T03:28:12.028Z,4.57
2023-05-06T03:30:39.858Z,4.07
2023-05-06T03:35:32.026Z,5.20
2023-05-06T03:38:00.467Z,5.15
2023-05-06T03:40:34.584Z,4.70
2023-05-06T03:43:01.408Z,4.65
2023-05-06T03:45:28.347Z,5.68
2023-05-06T03:47:55.032Z,5.38
2023-05-06T03:50:23.414Z,4.97
2023-05-06T03:52:50.038Z,5.72
2023-05-06T03:55:16.680Z,4.50
2023-05-06T03:57:43.821Z,5.55
2023-05-06T04:00:10.763Z,5.40
2023-05-06T04:02:37.595Z,5.03
2023-05-06T04:05:05.728Z,5.80
2023-05-06T04:07:32.445Z,7.63
2023-05-06T04:12:24.571Z,5.22
2023-05-06T04:14:52.270Z,6.07
2023-05-06T04:19:44.670Z,6.70
2023-05-06T04:22:11.421Z,6.63
2023-05-06T04:27:04.338Z,6.82
2023-05-06T04:29:31.181Z,6.95
2023-05-06T04:34:27.946Z,7.28
2023-05-06T04:36:58.501Z,7.32
2023-05-06T04:39:25.714Z,6.60
2023-05-06T04:41:52.502Z,7.43
2023-05-06T04:44:19.815Z,7.90
2023-05-06T04:49:13.102Z,9.05
2023-05-06T04:51:40.432Z,9.68
2023-05-06T04:54:07.156Z,8.80
2023-05-06T04:56:34.469Z,9.27
2023-05-06T05:06:54.864Z,11.63
2023-05-06T05:11:48.503Z,11.23
2023-05-06T05:14:15.209Z,10.73
2023-05-06T05:19:09.098Z,10.35
2023-05-06T05:21:36.543Z,9.55
2023-05-06T05:24:04.260Z,10.05
2023-05-06T05:26:31.403Z,10.35
2023-05-06T05:28:59.652Z,8.32
2023-05-06T05:36:37.304Z,5.90
2023-05-06T05:39:07.347Z,5.72
2023-05-06T05:46:24.901Z,4.68
2023-05-06T05:48:52.119Z,4.57
2023-05-06T05:51:21.751Z,4.85
2023-05-06T05:53:48.352Z,4.50
2023-05-06T05:56:14.930Z,3.50
2023-05-06T05:58:42.091Z,3.97
2023-05-06T06:01:09.310Z,4.82
2023-05-06T06:03:36.087Z,3.60
2023-05-06T06:06:05.170Z,5.53
2023-05-06T06:08:32.540Z,3.70
2023-05-06T06:13:31.808Z,4.22
2023-05-06T06:23:16.240Z,3.50
2023-05-06T06:25:43.092Z,3.00
2023-05-06T06:28:10.173Z,3.05
2023-05-06T06:30:36.771Z,3.92
2023-05-06T06:33:03.619Z,3.83
2023-05-06T06:35:30.386Z,3.65
2023-05-06T06:37:58.860Z,2.80
2023-05-06T06:40:25.494Z,2.78
2023-05-06T06:42:52.164Z,2.60
2023-05-06T06:45:18.905Z,3.65
2023-05-06T06:52:37.046Z,3.22
2023-05-06T06:55:03.902Z,2.50
2023-05-06T06:57:30.575Z,2.60
2023-05-06T06:59:57.273Z,3.08
2023-05-06T07:02:24.048Z,2.70
2023-05-06T07:04:50.853Z,2.95
2023-05-06T07:07:17.514Z,2.72
2023-05-06T07:14:35.357Z,2.70
2023-05-06T07:19:28.131Z,2.25
2023-05-06T07:21:55.097Z,2.78
2023-05-06T07:24:22.339Z,2.47
2023-05-06T07:26:49.263Z,2.80
2023-05-06T07:29:16.037Z,2.50
2023-05-06T07:31:42.825Z,3.58
2023-05-06T07:34:09.500Z,2.53
2023-05-06T07:36:40.639Z,3.25
2023-05-06T07:39:07.898Z,3.00
2023-05-06T07:41:34.902Z,2.45
2023-05-06T07:44:01.632Z,3.10
2023-05-06T07:46:28.362Z,3.20
2023-05-06T07:48:55.176Z,3.10
2023-05-06T07:51:21.920Z,3.10
2023-05-06T08:18:20.958Z,2.80
2023-05-06T08:25:39.786Z,3.40
2023-05-06T08:28:06.512Z,3.30
2023-05-06T08:32:58.671Z,3.40
2023-05-06T08:35:25.439Z,4.13
2023-05-06T08:37:52.214Z,3.88
2023-05-06T08:40:20.301Z,3.03
2023-05-06T08:42:50.567Z,3.40
2023-05-06T08:45:17.924Z,3.83
2023-05-06T08:47:45.056Z,3.35
2023-05-06T08:50:12.261Z,3.25
2023-05-06T09:00:31.593Z,4.00
2023-05-06T09:02:58.376Z,3.20
2023-05-06T09:05:25.054Z,3.25
2023-05-06T09:12:44.391Z,4.30
2023-05-06T09:20:02.258Z,3.33
2023-05-06T09:22:31.712Z,4.50
2023-05-06T09:24:58.640Z,4.40
2023-05-06T09:32:33.835Z,4.18
2023-05-06T09:35:02.343Z,4.35
2023-05-06T09:37:29.383Z,3.50
2023-05-06T09:39:58.271Z,3.67
2023-05-06T09:42:26.971Z,3.78
2023-05-06T09:47:19.906Z,3.72
2023-05-06T09:49:46.728Z,2.97
2023-05-06T09:54:40.006Z,2.72
2023-05-06T09:57:07.341Z,3.97
2023-05-06T09:59:34.244Z,3.67
2023-05-06T10:02:01.576Z,3.30
2023-05-06T10:04:29.900Z,3.88
2023-05-06T10:06:58.001Z,3.83
2023-05-06T10:09:25.090Z,3.20
2023-05-06T10:11:52.352Z,3.83
2023-05-06T10:19:50.541Z,3.15
2023-05-06T10:22:36.009Z,2.95
2023-05-06T10:27:41.814Z,3.78
2023-05-06T10:30:09.665Z,3.10
2023-05-06T10:32:38.627Z,3.20
2023-05-06T10:35:28.052Z,3.22
2023-05-06T10:42:46.225Z,2.80
2023-05-06T10:47:57.942Z,2.60
2023-05-06T10:52:52.219Z,2.60
2023-05-06T10:55:45.030Z,2.80
2023-05-06T10:58:11.706Z,2.80
2023-05-06T11:00:38.599Z,3.20
2023-05-06T11:05:32.264Z,2.70
2023-05-06T11:08:09.958Z,2.08
2023-05-06T11:10:37.057Z,2.30
2023-05-06T11:13:18.878Z,2.30
2023-05-06T11:15:46.493Z,2.30
2023-05-06T11:18:29.375Z,2.72
2023-05-06T11:21:04.843Z,2.08
2023-05-06T11:26:13.193Z,2.53
2023-05-06T11:28:40.491Z,2.50
2023-05-06T11:31:07.995Z,2.03
2023-05-06T11:33:35.948Z,2.25
2023-05-06T11:36:03.391Z,1.63
2023-05-06T11:41:11.829Z,2.28
2023-05-06T11:43:38.682Z,2.60
2023-05-06T11:50:56.884Z,2.20
2023-05-06T11:53:23.993Z,2.25
2023-05-06T11:55:52.638Z,2.45
2023-05-06T11:58:26.541Z,2.17
2023-05-06T12:09:06.902Z,2.35
2023-05-06T12:14:01.101Z,2.30
2023-05-06T12:16:28.174Z,2.13
2023-05-06T12:40:54.753Z,3.10
2023-05-06T12:53:34.544Z,2.50
2023-05-06T12:56:01.296Z,2.50
2023-05-06T12:58:27.971Z,2.35
2023-05-06T13:03:20.252Z,1.60
2023-05-06T13:05:50.078Z,1.80
2023-05-06T13:10:42.486Z,2.25
2023-05-06T13:13:09.283Z,2.35
2023-05-06T13:18:02.506Z,2.22
2023-05-06T13:20:29.367Z,1.70
2023-05-06T13:22:56.022Z,1.77
2023-05-06T13:25:23.045Z,2.05
2023-05-06T13:27:49.717Z,2.10
2023-05-06T13:30:17.179Z,1.77
2023-05-06T13:32:43.881Z,2.72
2023-05-06T13:35:10.715Z,1.95
2023-05-06T13:40:03.609Z,2.40
2023-05-06T13:42:30.480Z,2.00
2023-05-06T13:44:57.398Z,2.10
2023-05-06T13:49:49.563Z,2.13
2023-05-06T13:52:16.241Z,2.30
2023-05-06T13:59:34.728Z,3.05
2023-05-06T14:02:02.071Z,2.53
2023-05-06T14:04:28.910Z,2.22
2023-05-06T14:06:56.048Z,2.72
2023-05-06T14:09:22.689Z,2.50
2023-05-06T14:11:49.580Z,2.80
2023-05-06T14:14:16.437Z,2.10
2023-05-06T14:19:08.454Z,2.58
2023-05-06T14:21:35.134Z,2.53
2023-05-06T14:31:18.723Z,2.22
2023-05-06T14:33:45.564Z,2.45
2023-05-06T14:36:17.458Z,2.72
2023-05-06T14:38:44.155Z,2.78
2023-05-06T14:41:10.838Z,2.95
2023-05-06T14:43:37.493Z,3.00
2023-05-06T14:46:04.347Z,2.80
2023-05-06T14:48:32.046Z,2.97
2023-05-06T14:50:59.397Z,3.22
2023-05-06T14:55:51.454Z,2.67
2023-05-06T14:58:18.228Z,2.38
2023-05-06T15:00:45.189Z,3.00
2023-05-06T15:03:11.909Z,2.53
2023-05-06T15:05:38.687Z,2.35
2023-05-06T15:10:31.256Z,2.70
2023-05-06T15:12:58.045Z,2.55
2023-05-06T15:15:26.077Z,2.78
2023-05-06T15:17:52.904Z,3.55
2023-05-06T15:27:37.471Z,2.60
2023-05-06T15:30:04.677Z,2.65
2023-05-06T15:32:31.540Z,2.60
2023-05-06T15:39:49.853Z,3.35
2023-05-06T15:42:17.144Z,2.30
2023-05-06T15:44:43.986Z,2.15
2023-05-06T15:56:52.436Z,2.42
2023-05-06T15:59:19.146Z,2.30
2023-05-06T16:04:16.115Z,2.40
2023-05-06T16:06:42.985Z,2.78
2023-05-06T16:09:10.758Z,2.80
2023-05-06T16:11:37.430Z,2.67
2023-05-06T16:14:04.363Z,2.60
2023-05-06T16:26:13.701Z,2.00
2023-05-06T16:28:41.124Z,2.13
2023-05-06T16:33:33.189Z,2.22
2023-05-06T16:35:59.858Z,2.22
2023-05-06T16:38:26.562Z,2.13
2023-05-06T16:40:53.380Z,2.05
2023-05-06T16:43:20.179Z,2.70
2023-05-06T16:48:13.831Z,1.80
2023-05-06T16:50:41.066Z,2.10
2023-05-06T16:55:33.685Z,2.28
2023-05-06T16:58:04.151Z,2.15
2023-05-06T17:02:57.534Z,2.40
2023-05-06T17:05:24.742Z,1.90
2023-05-06T17:12:42.328Z,2.10
2023-05-06T17:20:00.255Z,2.78
2023-05-06T17:22:27.408Z,2.70
2023-05-06T17:24:54.383Z,3.05
2023-05-06T17:27:21.101Z,2.47
2023-05-06T17:32:13.262Z,2.60
2023-05-06T17:34:39.986Z,2.45
2023-05-06T17:37:06.692Z,2.50
2023-05-06T17:39:33.436Z,2.00
2023-05-06T17:42:00.404Z,2.20
2023-05-06T17:44:27.097Z,2.40
2023-05-06T17:46:54.110Z,2.17
2023-05-06T17:49:21.215Z,1.98
2023-05-06T17:51:51.050Z,2.00
2023-05-06T17:54:18.050Z,2.80
2023-05-06T17:56:52.893Z,2.20
2023-05-06T17:59:20.121Z,2.60
2023-05-06T18:01:46.868Z,1.98
2023-05-06T18:06:41.391Z,2.40
2023-05-06T18:09:08.587Z,2.72
2023-05-06T18:11:35.365Z,2.53
2023-05-06T18:14:02.089Z,2.35
2023-05-06T18:16:28.863Z,2.42
2023-05-06T18:18:55.571Z,2.50
2023-05-06T18:21:22.520Z,2.38
2023-05-06T18:23:51.441Z,2.40
2023-05-06T18:26:39.536Z,2.70
2023-05-06T18:34:00.361Z,2.63
2023-05-06T18:36:27.071Z,2.13
2023-05-06T18:38:53.913Z,2.42
2023-05-06T18:41:21.038Z,2.50
2023-05-06T18:43:47.730Z,2.75
2023-05-06T18:46:14.380Z,2.50
2023-05-06T18:51:19.125Z,2.60
2023-05-06T18:53:45.812Z,2.33
2023-05-06T18:56:13.417Z,3.00
2023-05-06T18:58:40.688Z,2.78
2023-05-06T19:01:08.258Z,2.58
2023-05-06T19:03:35.762Z,4.07
2023-05-06T19:06:03.272Z,4.22
2023-05-06T19:08:31.020Z,4.13
2023-05-06T19:11:01.152Z,2.97
2023-05-06T19:18:19.496Z,3.10
2023-05-06T19:20:46.496Z,3.28
2023-05-06T19:23:13.328Z,2.90
2023-05-06T19:25:40.089Z,3.38
2023-05-06T19:28:06.836Z,2.97
2023-05-06T19:30:34.925Z,3.28
2023-05-06T19:37:53.187Z,3.17
2023-05-06T19:40:20.033Z,4.15
2023-05-06T19:42:46.708Z,3.60
2023-05-06T19:45:14.589Z,3.38
2023-05-06T19:47:42.718Z,3.70
2023-05-06T19:50:09.730Z,3.80
2023-05-06T19:52:36.662Z,3.10
2023-05-06T19:55:03.599Z,3.05
2023-05-06T19:57:31.895Z,3.50
2023-05-06T19:59:58.559Z,3.00
2023-05-06T20:04:51.084Z,3.38
2023-05-06T20:07:21.198Z,3.40
2023-05-06T20:14:47.586Z,4.75
2023-05-06T20:17:16.965Z,3.50
2023-05-06T20:19:44.567Z,3.17
2023-05-06T20:27:02.875Z,3.28
2023-05-06T20:36:56.911Z,2.80
2023-05-06T20:39:23.856Z,4.18
2023-05-06T20:41:50.573Z,3.90
2023-05-06T20:54:00.955Z,3.85
2023-05-06T20:56:28.145Z,4.03
2023-05-06T21:01:21.985Z,2.92
2023-05-06T21:03:49.215Z,2.67
2023-05-06T21:06:16.794Z,2.13
2023-05-06T21:11:09.286Z,2.63
2023-05-06T21:13:35.984Z,2.30
2023-05-06T21:25:45.756Z,2.40
2023-05-06T21:28:13.704Z,2.13
2023-05-06T21:33:08.295Z,2.40
2023-05-06T21:35:35.098Z,2.55
2023-05-06T21:42:52.767Z,2.88
2023-05-06T21:47:46.772Z,2.50
2023-05-06T21:50:13.595Z,2.47
2023-05-06T21:52:40.616Z,2.38
2023-05-06T21:55:08.079Z,2.38
2023-05-06T21:57:34.899Z,2.50
2023-05-06T22:00:01.873Z,2.42
2023-05-06T22:02:34.862Z,2.63
2023-05-06T22:05:01.651Z,2.67
2023-05-06T22:07:28.311Z,2.60
2023-05-06T22:09:55.020Z,2.70
2023-05-06T22:19:39.051Z,2.65
2023-05-06T22:22:06.120Z,2.20
2023-05-06T22:24:32.833Z,2.70
2023-05-06T22:29:25.041Z,3.20
2023-05-06T22:31:51.851Z,3.30
2023-05-06T22:36:44.049Z,3.13
2023-05-06T22:39:10.744Z,2.53
2023-05-06T22:44:03.019Z,2.80
2023-05-06T22:46:29.887Z,3.30
2023-05-06T22:51:22.109Z,3.30
2023-05-06T22:53:48.854Z,3.30
2023-05-06T22:58:41.102Z,3.40
2023-05-06T23:01:07.958Z,3.33
2023-05-06T23:06:00.738Z,3.22
2023-05-06T23:08:27.442Z,3.42
2023-05-06T23:10:54.223Z,3.60
2023-05-06T23:13:21.184Z,3.58
2023-05-06T23:15:47.846Z,3.00
2023-05-06T23:18:14.604Z,3.90
2023-05-06T23:20:42.319Z,3.60
2023-05-06T23:23:10.768Z,3.47
2023-05-06T23:25:37.603Z,4.00
2023-05-06T23:28:04.482Z,4.00
2023-05-06T23:30:31.281Z,3.60
2023-05-06T23:32:58.107Z,3.13
2023-05-06T23:35:24.901Z,3.70
2023-05-06T23:37:51.630Z,3.33
2023-05-06T23:42:43.746Z,3.70
2023-05-06T23:45:10.617Z,4.03
2023-05-06T23:47:37.522Z,3.53
2023-05-06T23:50:04.346Z,4.00
2023-05-06T23:52:30.988Z,3.22
2023-05-06T23:54:57.672Z,3.50
2023-05-06T23:57:24.293Z,3.78
2023-05-06T23:59:50.988Z,4.00
